createdAt,value
2019-04-28T00:00:41.430Z,8.48
2019-04-28T00:06:46.017Z,8.78
2019-04-28T00:12:51.111Z,8.74
2019-04-28T00:18:55.678Z,8.65
2019-04-28T00:25:04.655Z,8.63
2019-04-28T00:31:11.158Z,8.95
2019-04-28T00:37:17.574Z,8.63
2019-04-28T00:43:22.381Z,8.76
2019-04-28T00:49:44.737Z,8.75
2019-04-28T00:55:49.322Z,8.48
2019-04-28T01:01:55.514Z,8.56
2019-04-28T01:08:01.116Z,8.49
2019-04-28T01:14:06.256Z,8.13
2019-04-28T01:20:15.351Z,7.98
2019-04-28T01:26:20.109Z,8.01
2019-04-28T01:32:26.491Z,7.93
2019-04-28T01:38:31.103Z,7.74
2019-04-28T01:44:35.642Z,7.70
2019-04-28T01:50:40.188Z,7.86
2019-04-28T01:56:44.723Z,8.00
2019-04-28T02:02:50.521Z,7.88
2019-04-28T02:08:55.296Z,7.83
2019-04-28T02:15:01.016Z,7.99
2019-04-28T02:21:07.569Z,7.85
2019-04-28T02:27:13.873Z,7.91
2019-04-28T02:33:20.978Z,7.90
2019-04-28T02:39:24.874Z,7.89
2019-04-28T02:45:31.623Z,7.73
2019-04-28T02:51:40.750Z,7.70
2019-04-28T02:57:44.806Z,7.81
2019-04-28T03:03:50.768Z,7.83
2019-04-28T03:09:55.626Z,7.83
2019-04-28T03:16:01.536Z,7.68
2019-04-28T03:22:06.576Z,7.86
2019-04-28T03:28:25.108Z,7.91
2019-04-28T03:34:44.180Z,7.80
2019-04-28T03:40:51.295Z,8.01
2019-04-28T03:46:56.584Z,7.90
2019-04-28T03:53:01.248Z,7.95
2019-04-28T03:59:05.943Z,7.99
2019-04-28T04:05:11.204Z,7.87
2019-04-28T04:11:26.257Z,7.86
2019-04-28T04:17:41.513Z,7.86
2019-04-28T04:23:46.175Z,7.93
2019-04-28T04:29:51.024Z,7.81
2019-04-28T04:35:55.779Z,7.96
2019-04-28T04:42:00.714Z,7.97
2019-04-28T04:48:05.684Z,7.89
2019-04-28T04:54:10.859Z,7.91
2019-04-28T05:00:26.293Z,7.98
2019-04-28T05:06:41.497Z,8.14
2019-04-28T05:12:46.388Z,8.14
2019-04-28T05:18:50.935Z,8.23
2019-04-28T05:25:00.110Z,8.31
2019-04-28T05:31:04.769Z,8.37
2019-04-28T05:37:10.792Z,8.45
2019-04-28T05:43:15.580Z,8.69
2019-04-28T05:49:23.357Z,8.80
2019-04-28T05:55:30.547Z,8.93
2019-04-28T06:01:36.850Z,9.08
2019-04-28T06:07:51.609Z,9.00
2019-04-28T06:13:56.150Z,9.25
2019-04-28T06:20:00.731Z,9.05
2019-04-28T06:26:05.302Z,9.11
2019-04-28T06:32:09.944Z,9.23
2019-04-28T06:38:14.484Z,9.01
2019-04-28T06:44:19.103Z,9.14
2019-04-28T06:50:23.643Z,9.21
2019-04-28T06:56:28.241Z,9.38
2019-04-28T07:02:32.849Z,9.66
2019-04-28T07:08:37.417Z,9.89
2019-04-28T07:14:41.994Z,10.15
2019-04-28T07:20:48.200Z,10.70
2019-04-28T07:26:52.765Z,11.05
2019-04-28T07:32:57.370Z,11.28
2019-04-28T07:39:02.020Z,11.85
2019-04-28T07:45:07.982Z,11.82
2019-04-28T07:51:12.561Z,12.45
2019-04-28T07:57:17.197Z,11.58
2019-04-28T08:03:21.832Z,11.51
2019-04-28T08:09:26.453Z,11.82
2019-04-28T08:15:31.012Z,13.13
2019-04-28T08:21:35.561Z,13.40
2019-04-28T08:27:40.703Z,12.81
2019-04-28T08:33:46.898Z,12.02
2019-04-28T08:40:03.249Z,11.89
2019-04-28T08:46:07.869Z,11.57
2019-04-28T08:52:12.495Z,12.69
2019-04-28T08:58:17.053Z,13.51
2019-04-28T09:04:21.606Z,15.01
2019-04-28T09:10:26.324Z,15.60
2019-04-28T09:16:30.955Z,14.70
2019-04-28T09:22:35.578Z,15.29
2019-04-28T09:28:40.200Z,16.06
2019-04-28T09:34:44.748Z,15.64
2019-04-28T09:40:49.393Z,14.09
2019-04-28T09:46:54.022Z,13.96
2019-04-28T09:52:58.610Z,13.52
2019-04-28T09:59:03.240Z,14.02
2019-04-28T10:05:09.740Z,14.12
2019-04-28T10:11:14.513Z,13.04
2019-04-28T10:17:19.037Z,12.51
2019-04-28T10:23:23.658Z,12.77
2019-04-28T10:29:28.332Z,13.34
2019-04-28T10:35:32.973Z,14.02
2019-04-28T10:41:39.182Z,14.56
2019-04-28T10:47:43.791Z,13.98
2019-04-28T10:53:48.362Z,13.25
2019-04-28T10:59:52.916Z,14.81
2019-04-28T11:05:57.629Z,14.50
2019-04-28T11:12:02.545Z,14.08
2019-04-28T11:18:09.068Z,13.44
2019-04-28T11:24:13.620Z,13.01
2019-04-28T11:30:19.601Z,13.12
2019-04-28T11:36:24.520Z,13.23
2019-04-28T11:42:29.085Z,14.03
2019-04-28T11:48:33.710Z,14.13
2019-04-28T11:54:38.272Z,14.74
2019-04-28T12:00:42.998Z,15.40
2019-04-28T12:06:47.822Z,15.61
2019-04-28T12:12:54.843Z,16.24
2019-04-28T12:19:09.871Z,20.06
2019-04-28T12:25:14.631Z,21.63
2019-04-28T12:31:19.287Z,19.50
2019-04-28T12:37:23.858Z,18.07
2019-04-28T12:43:28.397Z,17.83
2019-04-28T12:49:34.623Z,17.66
2019-04-28T12:55:39.166Z,18.04
2019-04-28T13:01:57.339Z,18.32
2019-04-28T13:08:01.960Z,21.59
2019-04-28T13:14:06.581Z,23.19
2019-04-28T13:20:11.282Z,22.25
2019-04-28T13:26:15.841Z,22.90
2019-04-28T13:32:20.437Z,17.93
2019-04-28T13:38:25.055Z,17.20
2019-04-28T13:44:49.517Z,15.49
2019-04-28T13:50:54.063Z,14.56
2019-04-28T13:56:58.625Z,14.01
2019-04-28T14:03:08.685Z,13.97
2019-04-28T14:09:14.937Z,14.15
2019-04-28T14:15:19.504Z,14.70
2019-04-28T14:21:24.094Z,15.14
2019-04-28T14:27:28.709Z,16.62
2019-04-28T14:33:33.337Z,17.63
2019-04-28T14:39:37.880Z,18.82
2019-04-28T14:45:42.431Z,19.79
2019-04-28T14:51:47.122Z,19.54
2019-04-28T14:57:51.650Z,19.29
2019-04-28T15:03:57.866Z,18.98
2019-04-28T15:10:04.093Z,18.20
2019-04-28T15:16:08.827Z,16.78
2019-04-28T15:22:13.384Z,15.98
2019-04-28T15:28:18.011Z,15.91
2019-04-28T15:34:22.592Z,15.81
2019-04-28T15:40:27.218Z,15.58
2019-04-28T15:46:31.765Z,15.94
2019-04-28T15:52:36.322Z,18.53
2019-04-28T15:58:40.943Z,18.27
2019-04-28T16:04:45.485Z,19.98
2019-04-28T16:10:50.033Z,19.35
2019-04-28T16:16:54.589Z,18.37
2019-04-28T16:22:59.204Z,18.17
2019-04-28T16:29:04.023Z,17.69
2019-04-28T16:35:08.825Z,17.37
2019-04-28T16:41:26.604Z,20.60
2019-04-28T16:47:31.176Z,25.08
2019-04-28T16:53:37.278Z,27.41
2019-04-28T16:59:51.982Z,27.80
2019-04-28T17:05:56.772Z,27.66
2019-04-28T17:12:01.333Z,27.53
2019-04-28T17:18:06.138Z,27.12
2019-04-28T17:24:10.717Z,26.95
2019-04-28T17:30:15.487Z,26.97
2019-04-28T17:36:20.176Z,24.45
2019-04-28T17:42:24.744Z,23.90
2019-04-28T17:48:37.067Z,22.83
2019-04-28T17:54:41.631Z,22.51
2019-04-28T18:00:55.173Z,22.27
2019-04-28T18:07:06.847Z,21.20
2019-04-28T18:13:11.577Z,20.60
2019-04-28T18:19:17.764Z,19.33
2019-04-28T18:25:22.449Z,17.58
2019-04-28T18:31:26.770Z,16.07
2019-04-28T18:37:49.228Z,14.84
2019-04-28T18:44:04.426Z,13.56
2019-04-28T18:50:09.220Z,12.35
2019-04-28T18:56:13.850Z,11.59
2019-04-28T19:02:28.931Z,11.31
2019-04-28T19:08:48.498Z,10.77
2019-04-28T19:14:45.891Z,10.20
2019-04-28T19:20:50.567Z,9.87
2019-04-28T19:26:55.523Z,9.59
2019-04-28T19:33:00.128Z,9.26
2019-04-28T19:39:06.243Z,9.17
2019-04-28T19:45:12.679Z,9.09
2019-04-28T19:51:31.070Z,8.85
2019-04-28T19:57:26.820Z,8.94
2019-04-28T20:03:31.362Z,8.48
2019-04-28T20:09:35.966Z,8.75
2019-04-28T20:15:40.583Z,8.36
2019-04-28T20:21:45.162Z,8.32
2019-04-28T20:27:49.706Z,8.23
2019-04-28T20:33:54.267Z,8.15
2019-04-28T20:40:02.893Z,8.04
2019-04-28T20:46:07.796Z,8.14
2019-04-28T20:52:12.417Z,7.79
2019-04-28T20:58:16.969Z,7.58
2019-04-28T21:04:21.507Z,7.76
2019-04-28T21:10:37.265Z,7.74
2019-04-28T21:16:32.405Z,7.60
2019-04-28T21:22:37.065Z,7.73
2019-04-28T21:28:41.602Z,7.45
2019-04-28T21:34:46.147Z,7.45
2019-04-28T21:40:50.728Z,7.20
2019-04-28T21:46:56.889Z,7.01
2019-04-28T21:53:01.433Z,7.05
2019-04-28T21:59:06.042Z,7.09
2019-04-28T22:05:10.832Z,6.83
2019-04-28T22:11:15.537Z,6.83
2019-04-28T22:17:20.157Z,6.63
2019-04-28T22:23:26.418Z,6.70
2019-04-28T22:29:31.045Z,6.83
2019-04-28T22:35:35.564Z,6.64
2019-04-28T22:41:40.282Z,6.67
2019-04-28T22:47:44.894Z,6.41
2019-04-28T22:53:49.693Z,6.32
2019-04-28T22:59:55.894Z,6.34
2019-04-28T23:06:00.619Z,6.41
2019-04-28T23:12:05.345Z,6.17
2019-04-28T23:18:09.952Z,6.37
2019-04-28T23:24:14.526Z,6.25
2019-04-28T23:30:44.086Z,5.97
2019-04-28T23:36:48.695Z,6.10
2019-04-28T23:42:54.873Z,6.03
2019-04-28T23:48:59.416Z,6.09
2019-04-28T23:55:09.222Z,5.92
